Flight Track Log - Related Links

Times and Time Zones

All times are in EDT time to prevent confusion due to time zone crossing. See the EGF2566 flight status page for this flight to view local times or setup timezone preferences in your user account.

Time Position Orientation Groundspeed Altitude Reporting Facility
EDT Latitude Longitude Course Direction KTS MPH feet Rate Location/Type
Wed 09:47:00 PM 30.6478 -91.4150 297° West  Level Estimated
Wed 09:48:00 PM 30.6860 -91.5036 297° West  Level Estimated
Wed 09:49:00 PM 30.7242 -91.5922 297° West  Level Estimated
Wed 09:50:00 PM 30.7622 -91.6808 297° West  Level Estimated
Wed 09:51:00 PM 30.8002 -91.7696 297° West  Level Estimated
Wed 09:52:00 PM 30.8382 -91.8584 296° West  Level Estimated
Wed 09:53:00 PM 30.8761 -91.9473 296° West  Level Estimated
Wed 09:54:00 PM 30.9139 -92.0362 296° West  Level Estimated
Wed 09:55:00 PM 30.9517 -92.1253 296° West  Level Estimated
Wed 09:56:00 PM 30.9894 -92.2143 296° West  Level Estimated
Wed 09:57:00 PM 31.0270 -92.3035 296° West  Level Estimated
Wed 09:58:00 PM 31.0646 -92.3927 296° West  Level Estimated
Wed 09:59:00 PM 31.1021 -92.4820 296° West  Level Estimated
Wed 10:00:00 PM 31.1396 -92.5714 296° West  Level Estimated
Wed 10:01:00 PM 31.1770 -92.6608 296° West  Level Estimated
Wed 10:02:00 PM 31.2143 -92.7504 296° West  Level Estimated
Wed 10:03:00 PM 31.2516 -92.8399 296° West  Level Estimated
Wed 10:04:00 PM 31.2888 -92.9296 296° West  Level Estimated
Wed 10:05:00 PM 31.3260 -93.0193 296° West  Level Estimated
Wed 10:06:00 PM 31.3631 -93.1091 296° West  Level Estimated
Wed 10:07:00 PM 31.4001 -93.1990 296° West  Level Estimated
Wed 10:08:00 PM 31.4370 -93.2889 296° West  Level Estimated
Wed 10:09:00 PM 31.4739 -93.3790 296° West  Level Estimated
Wed 10:10:00 PM 31.5108 -93.4690 296° West  Level Estimated
Wed 10:11:00 PM 31.5476 -93.5592 296° West  Level Estimated
Wed 10:12:00 PM 31.5843 -93.6494 296° West  Level Estimated
Wed 10:13:00 PM 31.6209 -93.7397 296° West  Level Estimated
Wed 10:14:00 PM 31.6575 -93.8301 295° West  Level Estimated
Wed 10:15:00 PM 31.6940 -93.9205 295° West  Level Estimated
Wed 10:16:00 PM 31.7305 -94.0110 295° West  Level Estimated
Wed 10:17:00 PM 31.7669 -94.1016 295° West  Level Estimated
Wed 10:18:00 PM 31.8032 -94.1922 295° West  Level Estimated
Wed 10:19:00 PM 31.8418 -94.2889 295° West  Level Estimated
Wed 10:20:00 PM 31.8804 -94.3857 295° West  Level Estimated
Wed 10:21:00 PM 31.9189 -94.4825 295° West  Level Estimated
Wed 10:22:00 PM 31.9573 -94.5794 295° West  Level Estimated
Wed 10:23:00 PM 31.9957 -94.6764 295° West  Level Estimated
Wed 10:24:00 PM 32.0339 -94.7735 295° West  Level Estimated
Wed 10:25:00 PM 32.0721 -94.8707 295° West  Level Estimated
Wed 10:26:00 PM 32.1103 -94.9679 295° West  Level Estimated
Wed 10:27:00 PM 32.1483 -95.0652 295° West  Level Estimated
Wed 10:28:00 PM 32.1863 -95.1626 295° West  Level Estimated
Wed 10:29:00 PM 32.2242 -95.2601 295° West  Level Estimated
Wed 10:30:00 PM 32.2620 -95.3577 295° West  Level Estimated
Wed 10:31:00 PM 32.2998 -95.4553 295° West  Level Estimated
Wed 10:32:00 PM 32.3374 -95.5530 295° West  Level Estimated
Wed 10:33:00 PM 32.3750 -95.6508 294° West  Level Estimated
Wed 10:34:00 PM 32.4125 -95.7487 294° West  Level Estimated
Wed 10:35:00 PM 32.4500 -95.8467 294° West  Level Estimated
Wed 10:36:00 PM 32.4874 -95.9447 294° West  Level Estimated
Wed 10:37:00 PM 32.5247 -96.0429 294° West  Level Estimated
Wed 10:38:00 PM 32.5619 -96.1411 294° West  Level Estimated
Wed 10:39:00 PM 32.5990 -96.2394 294° West  Level Estimated
Wed 10:40:00 PM 32.6361 -96.3378 294° West  Level Estimated
Wed 10:41:00 PM 32.6731 -96.4362 294° West  Level Estimated
Wed 10:42:00 PM 32.7100 -96.5348 294° West  Level Estimated
Wed 10:43:00 PM 32.7468 -96.6334 294° West  Level Estimated
Wed 10:44:00 PM 32.7836 -96.7321 294° West  Level Estimated
Wed 10:45:00 PM 32.8203 -96.8309 294° West  Level Estimated
Wed 10:46:00 PM 32.8569 -96.9297 294° West  Level Estimated
Wed 10:47:00 PM 32.8934 -97.0287 294° West  Level Estimated
Wed 10:48:00 PM 32.8968 -97.0380 294° West  Level Estimated
Wed 10:49:00 PM 32.8968 -97.0380 118° Southeast  Level Estimated

Login

Don't have an account? Register now (free) for customized features, flight alerts, and more!